KCAEKHWO

Guest
Details From KCAE - Columbia Metropolitan
To KHWO - North Perry
Flight Number -
Tags Generated
Created
Modified
Stats Distance 478 nm / 886 km
Max Altitude 0 ft / 0 m
Waypoints 4
Social Downloads 5
Likes 0
Share VATSIM

Download

Looking for another format? Having issues loading an existing format? Contact us
Advertisement - Login to hide

Notes

Generated

Route

KCAE FEDSA 12214 KHWO

ID Type Via Altitude Latitude Longitude Leg Dist Tot Dist Heading (true) Name
O KCAE APT - 0 ft / 0 m 33.92853˚ -81.12397˚ - 0 nm - -
FEDSA FIX - 0 ft / 0 m 30.12192˚ -80.65369˚ 229 nm 229 nm 174° / 174° -
12214 FIX - 0 ft / 0 m 26.33911˚ -80.26510˚ 228 nm 457 nm 175° / 175° -
O KHWO APT - 0 ft / 0 m 26.00227˚ -80.24478˚ 20 nm 478 nm 177° / 177° North Perry

Altitude Profile

Advertisement - Login to hide

Weather


0- 5 10 15 20 25 30 35+ Temperature / ° C

Clouds and Precipitation
Forecast for 2017-12-14 12:00 UTC. Updated an hour ago

Ground ~20,000 ft ~40,000 ft Winds

KCAE

Details ICAO KCAE (CAE)
Name COLUMBIA METROPOLITAN
Region United States
Timezone America/New_York (UTC-5.0)
Stats Elevation 236 ft / 72 m (AMSL)
Location 33.938750° -81.119367°
Runways 2
Magnetic Variation 7.365° W

METAR

KCAE 140756Z 24006KT 10SM CLR 04/M05 A2981 RMK AO2 SLP094 T00391050

Decode

TAF

KCAE 140831Z 1409/1506 24008KT P6SM SCT250 WS020/25040KT FM141400 26010G15KT P6SM FEW250 FM142300 25003KT P6SM FEW250

Decode

Departure Runways

ID Width Length Bearing (true) Bearing (mag) Surface Threshold Offset Overrun Length
05 150 ft / 46 m 8,004 ft / 2,440 m 44.52° 51.88° Asphalt 0 ft / 0 m 0 ft / 0 m
11 150 ft / 46 m 8,587 ft / 2,617 m 104.72° 112.08° Asphalt 0 ft / 0 m 0 ft / 0 m
23 150 ft / 46 m 8,004 ft / 2,440 m 224.53° 231.89° Asphalt 1,000 ft / 305 m 0 ft / 0 m
29 150 ft / 46 m 8,587 ft / 2,617 m 284.74° 292.10° Asphalt 0 ft / 0 m 0 ft / 0 m

KHWO

Details ICAO KHWO (HWO)
Name North Perry
Region United States
Timezone America/New_York (UTC-5.0)
Stats Elevation 9 ft / 3 m (AMSL)
Location 26.001225° -80.240701°
Runways 4
Magnetic Variation 6.702° W

METAR

KHWO 140753Z 00000KT 10SM CLR 08/06 A3006 RMK AO2 SLP180 T00830056 $

Decode

TAF

Not found

Destination Runways

ID Width Length Bearing (true) Bearing (mag) Surface Threshold Offset Overrun Length
01L 100 ft / 30 m 3,363 ft / 1,025 m 0.34° 7.04° Asphalt 350 ft / 107 m 0 ft / 0 m
01R 100 ft / 30 m 3,273 ft / 998 m 0.35° 7.05° Asphalt 185 ft / 56 m 0 ft / 0 m
10L 100 ft / 30 m 3,236 ft / 986 m 90.34° 97.04° Asphalt 182 ft / 55 m 0 ft / 0 m
10R 100 ft / 30 m 3,250 ft / 991 m 90.34° 97.04° Asphalt 255 ft / 78 m 0 ft / 0 m
19L 100 ft / 30 m 3,273 ft / 998 m 180.35° 187.05° Asphalt 110 ft / 34 m 0 ft / 0 m
19R 100 ft / 30 m 3,363 ft / 1,025 m 180.34° 187.04° Asphalt 350 ft / 107 m 0 ft / 0 m
28L 100 ft / 30 m 3,250 ft / 991 m 270.34° 277.04° Asphalt 210 ft / 64 m 0 ft / 0 m
28R 100 ft / 30 m 3,236 ft / 986 m 270.34° 277.04° Asphalt 60 ft / 18 m 0 ft / 0 m